createdAt,value
2022-10-04T00:00:58.721Z,7.67
2022-10-04T00:02:03.837Z,7.97
2022-10-04T00:03:25.478Z,8.17
2022-10-04T00:04:29.403Z,8.43
2022-10-04T00:05:30.967Z,7.53
2022-10-04T00:06:32.454Z,7.63
2022-10-04T00:07:39.317Z,6.80
2022-10-04T00:08:40.568Z,7.40
2022-10-04T00:09:42.588Z,7.37
2022-10-04T00:10:44.285Z,6.93
2022-10-04T00:11:46.653Z,7.67
2022-10-04T00:12:52.169Z,7.73
2022-10-04T00:14:13.949Z,7.20
2022-10-04T00:15:18.301Z,7.50
2022-10-04T00:16:26.335Z,7.17
2022-10-04T00:17:30.242Z,7.27
2022-10-04T00:18:44.654Z,7.17
2022-10-04T00:19:47.647Z,7.27
2022-10-04T00:20:53.188Z,7.30
2022-10-04T00:21:55.271Z,6.90
2022-10-04T00:23:19.550Z,7.27
2022-10-04T00:24:21.894Z,7.53
2022-10-04T00:25:34.343Z,6.83
2022-10-04T00:26:35.605Z,6.90
2022-10-04T00:27:38.233Z,6.83
2022-10-04T00:28:40.064Z,6.90
2022-10-04T00:29:44.462Z,6.67
2022-10-04T00:30:45.781Z,7.00
2022-10-04T00:32:05.875Z,7.00
2022-10-04T00:33:08.025Z,7.00
2022-10-04T00:34:09.391Z,7.27
2022-10-04T00:35:25.769Z,7.00
2022-10-04T00:36:32.355Z,6.47
2022-10-04T00:37:53.965Z,6.80
2022-10-04T00:39:04.255Z,6.17
2022-10-04T00:40:12.121Z,6.70
2022-10-04T00:41:13.693Z,6.97
2022-10-04T00:42:24.203Z,6.53
2022-10-04T00:43:37.704Z,7.13
2022-10-04T00:44:43.410Z,7.00
2022-10-04T00:45:46.803Z,7.10
2022-10-04T00:46:49.328Z,7.23
2022-10-04T00:48:08.935Z,7.13
2022-10-04T00:49:10.764Z,7.03
2022-10-04T00:50:41.443Z,7.03
2022-10-04T00:51:44.907Z,6.47
2022-10-04T00:52:49.942Z,7.50
2022-10-04T00:53:54.203Z,7.30
2022-10-04T00:54:57.899Z,6.60
2022-10-04T00:56:01.360Z,6.83
2022-10-04T00:57:05.241Z,7.17
2022-10-04T00:58:12.577Z,6.87
2022-10-04T00:59:13.924Z,6.70
2022-10-04T01:00:16.676Z,6.90
2022-10-04T01:01:21.167Z,7.03
2022-10-04T01:02:26.378Z,7.47
2022-10-04T01:03:27.823Z,6.37
2022-10-04T01:05:07.721Z,7.40
2022-10-04T01:06:10.697Z,7.17
2022-10-04T01:07:14.687Z,8.00
2022-10-04T01:08:18.729Z,7.17
2022-10-04T01:09:21.049Z,7.03
2022-10-04T01:10:27.511Z,7.17
2022-10-04T01:11:30.007Z,7.40
2022-10-04T01:12:43.668Z,7.17
2022-10-04T01:13:50.449Z,6.70
2022-10-04T01:14:55.990Z,7.67
2022-10-04T01:16:00.825Z,7.07
2022-10-04T01:17:03.316Z,7.40
2022-10-04T01:18:09.519Z,6.47
2022-10-04T01:19:24.340Z,6.87
2022-10-04T01:20:32.707Z,7.03
2022-10-04T01:21:37.655Z,6.53
2022-10-04T01:22:43.268Z,6.83
2022-10-04T01:23:46.134Z,7.00
2022-10-04T01:24:47.462Z,7.17
2022-10-04T01:25:50.103Z,6.97
2022-10-04T01:26:51.432Z,6.73
2022-10-04T01:27:52.781Z,6.87
2022-10-04T01:28:54.349Z,7.13
2022-10-04T01:29:55.745Z,6.70
2022-10-04T01:30:57.192Z,6.80
2022-10-04T01:31:59.652Z,6.90
2022-10-04T01:33:01.966Z,7.00
2022-10-04T01:34:05.188Z,6.60
2022-10-04T01:35:08.074Z,6.90
2022-10-04T01:36:09.465Z,7.13
2022-10-04T01:37:10.832Z,7.00
2022-10-04T01:38:12.860Z,7.40
2022-10-04T01:39:15.122Z,6.80
2022-10-04T01:40:16.795Z,7.07
2022-10-04T01:41:21.407Z,7.27
2022-10-04T01:42:23.302Z,6.90
2022-10-04T01:43:27.869Z,6.47
2022-10-04T01:44:38.143Z,6.23
2022-10-04T01:45:48.129Z,6.27
2022-10-04T01:46:50.073Z,7.17
2022-10-04T01:48:01.518Z,7.27
2022-10-04T01:49:10.941Z,6.90
2022-10-04T01:50:18.466Z,6.87
2022-10-04T01:51:21.853Z,6.40
2022-10-04T01:52:30.424Z,7.00
2022-10-04T01:53:34.267Z,6.57
2022-10-04T01:54:38.747Z,7.00
2022-10-04T01:55:41.715Z,6.87
2022-10-04T01:56:47.876Z,6.73
2022-10-04T01:57:52.813Z,6.30
2022-10-04T01:58:58.950Z,7.10
2022-10-04T02:00:02.266Z,6.37
2022-10-04T02:01:11.830Z,6.40
2022-10-04T02:02:21.768Z,6.27
2022-10-04T02:03:27.860Z,6.83
2022-10-04T02:04:32.169Z,6.30
2022-10-04T02:05:35.967Z,6.70
2022-10-04T02:06:38.570Z,6.27
2022-10-04T02:07:40.746Z,6.30
2022-10-04T02:08:47.000Z,6.50
2022-10-04T02:09:50.699Z,6.07
2022-10-04T02:10:53.454Z,6.03
2022-10-04T02:11:55.257Z,6.03
2022-10-04T02:12:57.097Z,5.30
2022-10-04T02:13:58.498Z,6.10
2022-10-04T02:15:02.188Z,5.93
2022-10-04T02:16:04.059Z,6.30
2022-10-04T02:17:10.357Z,5.23
2022-10-04T02:18:13.199Z,5.40
2022-10-04T02:19:15.109Z,6.17
2022-10-04T02:20:17.887Z,5.60
2022-10-04T02:21:19.751Z,6.00
2022-10-04T02:22:23.012Z,5.67
2022-10-04T02:23:24.885Z,6.10
2022-10-04T02:24:26.469Z,5.40
2022-10-04T02:25:27.849Z,5.50
2022-10-04T02:26:29.507Z,5.83
2022-10-04T02:27:31.970Z,6.20
2022-10-04T02:28:33.959Z,5.50
2022-10-04T02:29:35.536Z,6.50
2022-10-04T02:30:38.330Z,5.40
2022-10-04T02:31:58.402Z,5.50
2022-10-04T02:33:00.288Z,5.50
2022-10-04T02:34:01.716Z,6.43
2022-10-04T02:35:04.032Z,5.53
2022-10-04T02:36:08.467Z,5.80
2022-10-04T02:37:09.841Z,6.27
2022-10-04T02:38:11.148Z,6.13
2022-10-04T02:39:21.328Z,5.80
2022-10-04T02:40:26.571Z,6.30
2022-10-04T02:41:31.744Z,6.27
2022-10-04T02:42:36.257Z,6.50
2022-10-04T02:43:40.928Z,6.23
2022-10-04T02:44:45.268Z,6.30
2022-10-04T02:45:50.831Z,5.70
2022-10-04T02:46:52.494Z,5.87
2022-10-04T02:48:16.576Z,5.50
2022-10-04T02:49:33.062Z,5.17
2022-10-04T02:50:36.124Z,5.60
2022-10-04T02:51:46.392Z,5.40
2022-10-04T02:52:51.317Z,6.23
2022-10-04T02:54:02.940Z,5.77
2022-10-04T02:55:06.427Z,6.07
2022-10-04T02:56:09.448Z,6.63
2022-10-04T02:57:14.715Z,6.30
2022-10-04T02:58:18.352Z,5.70
2022-10-04T02:59:20.011Z,6.27
2022-10-04T03:00:27.223Z,6.40
2022-10-04T03:01:50.806Z,6.70
2022-10-04T03:03:10.835Z,6.70
2022-10-04T03:04:15.002Z,8.73
2022-10-04T03:05:16.393Z,11.20
2022-10-04T03:06:19.248Z,10.53
2022-10-04T03:07:21.410Z,9.53
2022-10-04T03:08:22.757Z,9.90
2022-10-04T03:09:29.493Z,9.70
2022-10-04T03:10:31.403Z,9.70
2022-10-04T03:11:37.359Z,8.10
2022-10-04T03:12:41.841Z,7.07
2022-10-04T03:13:46.302Z,5.97
2022-10-04T03:14:47.677Z,6.30
2022-10-04T03:15:50.215Z,5.97
2022-10-04T03:16:53.706Z,6.00
2022-10-04T03:17:55.425Z,6.67
2022-10-04T03:18:57.573Z,6.07
2022-10-04T03:20:00.176Z,6.77
2022-10-04T03:21:02.591Z,5.90
2022-10-04T03:22:11.119Z,7.20
2022-10-04T03:23:13.987Z,6.33
2022-10-04T03:24:41.655Z,6.47
2022-10-04T03:25:55.303Z,5.77
2022-10-04T03:26:57.697Z,7.63
2022-10-04T03:28:02.737Z,6.97
2022-10-04T03:29:09.488Z,6.60
2022-10-04T03:30:14.534Z,6.63
2022-10-04T03:31:16.129Z,7.13
2022-10-04T03:32:18.864Z,7.10
2022-10-04T03:33:22.211Z,6.80
2022-10-04T03:34:24.825Z,6.37
2022-10-04T03:35:28.914Z,6.90
2022-10-04T03:36:30.312Z,6.57
2022-10-04T03:37:34.593Z,7.20
2022-10-04T03:38:36.156Z,6.97
2022-10-04T03:39:39.837Z,6.63
2022-10-04T03:40:45.193Z,6.17
2022-10-04T03:41:47.384Z,5.80
2022-10-04T03:42:50.400Z,6.10
2022-10-04T03:43:53.891Z,6.70
2022-10-04T03:44:57.025Z,6.60
2022-10-04T03:45:59.403Z,6.60
2022-10-04T03:47:01.184Z,6.17
2022-10-04T03:48:08.581Z,6.10
2022-10-04T03:49:11.559Z,6.50
2022-10-04T03:50:12.903Z,5.57
2022-10-04T03:51:16.165Z,5.50
2022-10-04T03:52:22.485Z,5.50
2022-10-04T03:53:23.812Z,6.17
2022-10-04T03:54:27.872Z,5.80
2022-10-04T03:55:33.924Z,6.50
2022-10-04T03:56:36.369Z,5.80
2022-10-04T03:57:37.976Z,6.23
2022-10-04T03:58:39.407Z,6.47
2022-10-04T03:59:40.780Z,6.80
2022-10-04T04:00:53.928Z,6.97
2022-10-04T04:02:02.358Z,6.97
2022-10-04T04:03:05.707Z,7.13
2022-10-04T04:04:16.489Z,8.20
2022-10-04T04:05:24.689Z,8.67
2022-10-04T04:06:28.847Z,8.80
2022-10-04T04:07:35.557Z,8.70
2022-10-04T04:08:39.031Z,8.77
2022-10-04T04:09:44.926Z,9.07
2022-10-04T04:10:54.869Z,9.60
2022-10-04T04:11:57.328Z,9.17
2022-10-04T04:13:01.479Z,9.23
2022-10-04T04:14:06.596Z,9.37
2022-10-04T04:15:12.077Z,9.83
2022-10-04T04:16:14.779Z,8.83
2022-10-04T04:17:17.941Z,9.40
2022-10-04T04:18:20.408Z,9.43
2022-10-04T04:19:23.637Z,9.67
2022-10-04T04:20:27.513Z,9.27
2022-10-04T04:21:29.683Z,8.23
2022-10-04T04:22:31.304Z,9.00
2022-10-04T04:23:34.371Z,7.97
2022-10-04T04:24:35.961Z,8.63
2022-10-04T04:25:39.358Z,7.47
2022-10-04T04:26:45.476Z,8.83
2022-10-04T04:27:50.310Z,8.17
2022-10-04T04:28:52.851Z,8.27
2022-10-04T04:29:54.803Z,8.10
2022-10-04T04:30:59.140Z,8.03
2022-10-04T04:32:02.406Z,8.30
2022-10-04T04:33:08.195Z,7.80
2022-10-04T04:34:19.763Z,8.13
2022-10-04T04:35:39.002Z,7.77
2022-10-04T04:36:41.674Z,8.60
2022-10-04T04:37:42.959Z,8.37
2022-10-04T04:39:03.083Z,8.50
2022-10-04T04:40:21.475Z,8.50
2022-10-04T04:41:23.018Z,8.57
2022-10-04T04:42:30.270Z,8.33
2022-10-04T04:43:31.680Z,7.90
2022-10-04T04:44:33.892Z,7.67
2022-10-04T04:45:36.391Z,7.93
2022-10-04T04:46:37.929Z,8.03
2022-10-04T04:47:42.176Z,7.87
2022-10-04T04:48:45.086Z,8.20
2022-10-04T04:49:46.387Z,8.77
2022-10-04T04:50:49.527Z,7.60
2022-10-04T04:51:51.707Z,8.33
2022-10-04T04:53:01.913Z,7.90
2022-10-04T04:54:04.833Z,8.10
2022-10-04T04:55:06.731Z,8.27
2022-10-04T04:56:10.635Z,8.17
2022-10-04T04:57:19.364Z,8.57
2022-10-04T04:58:22.246Z,8.10
2022-10-04T04:59:24.507Z,9.03
2022-10-04T05:00:29.772Z,8.47
2022-10-04T05:01:42.524Z,8.37
2022-10-04T05:02:52.795Z,7.97
2022-10-04T05:04:02.147Z,7.90
2022-10-04T05:05:22.259Z,8.77
2022-10-04T05:06:27.517Z,8.53
2022-10-04T05:07:29.453Z,8.40
2022-10-04T05:08:31.871Z,8.43
2022-10-04T05:09:38.421Z,7.63
2022-10-04T05:10:42.805Z,8.20
2022-10-04T05:11:44.397Z,8.00
2022-10-04T05:12:47.039Z,7.93
2022-10-04T05:13:53.364Z,8.10
2022-10-04T05:14:56.707Z,8.40
2022-10-04T05:15:58.430Z,8.37
2022-10-04T05:16:59.947Z,7.83
2022-10-04T05:18:02.381Z,7.87
2022-10-04T05:19:06.457Z,8.40
2022-10-04T05:20:07.970Z,8.23
2022-10-04T05:21:13.502Z,8.13
2022-10-04T05:22:17.802Z,8.57
2022-10-04T05:23:19.112Z,7.93
2022-10-04T05:24:29.564Z,8.10
2022-10-04T05:25:33.733Z,7.77
2022-10-04T05:26:35.943Z,7.60
2022-10-04T05:27:43.206Z,7.83
2022-10-04T05:28:45.173Z,7.80
2022-10-04T05:29:55.056Z,7.80
2022-10-04T05:31:04.356Z,7.93
2022-10-04T05:32:08.463Z,7.30
2022-10-04T05:33:25.237Z,8.03
2022-10-04T05:34:28.814Z,7.90
2022-10-04T05:35:38.361Z,7.40
2022-10-04T05:36:51.138Z,7.23
2022-10-04T05:37:58.368Z,7.93
2022-10-04T05:39:07.961Z,7.90
2022-10-04T05:40:15.374Z,7.77
2022-10-04T05:41:22.843Z,7.70
2022-10-04T05:42:27.405Z,7.87
2022-10-04T05:43:44.325Z,8.80
2022-10-04T05:44:52.932Z,7.70
2022-10-04T05:46:13.178Z,7.50
2022-10-04T05:47:15.112Z,8.10
2022-10-04T05:48:16.607Z,7.80
2022-10-04T05:49:19.727Z,7.77
2022-10-04T05:50:30.098Z,7.73
2022-10-04T05:51:37.465Z,7.30
2022-10-04T05:52:39.882Z,6.97
2022-10-04T05:53:42.000Z,6.60
2022-10-04T05:54:43.702Z,6.70
2022-10-04T05:55:48.116Z,6.77
2022-10-04T05:57:01.507Z,6.90
2022-10-04T05:58:18.098Z,6.50
2022-10-04T05:59:30.310Z,6.63
2022-10-04T06:00:37.835Z,5.67
2022-10-04T06:01:48.567Z,6.40
2022-10-04T06:02:51.229Z,6.33
2022-10-04T06:03:55.362Z,6.30
2022-10-04T06:05:11.252Z,6.20
2022-10-04T06:06:12.631Z,6.40
2022-10-04T06:07:26.021Z,6.67
2022-10-04T06:08:43.725Z,6.60
2022-10-04T06:09:56.362Z,6.73
2022-10-04T06:11:05.268Z,6.30
2022-10-04T06:12:16.095Z,6.73
2022-10-04T06:13:41.632Z,6.60
2022-10-04T06:14:42.899Z,6.43
2022-10-04T06:15:44.276Z,6.80
2022-10-04T06:17:11.281Z,6.20
2022-10-04T06:18:19.049Z,7.00
2022-10-04T06:19:58.770Z,6.93
2022-10-04T06:21:06.095Z,6.63
2022-10-04T06:22:17.580Z,7.40
2022-10-04T06:23:21.059Z,7.80
2022-10-04T06:24:27.028Z,7.00
2022-10-04T06:25:36.760Z,7.40
2022-10-04T06:26:40.592Z,7.10
2022-10-04T06:27:46.995Z,7.13
2022-10-04T06:28:51.449Z,7.40
2022-10-04T06:29:55.750Z,7.27
2022-10-04T06:31:03.271Z,7.17
2022-10-04T06:32:04.639Z,7.17
2022-10-04T06:33:32.020Z,7.90
2022-10-04T06:34:48.270Z,6.70
2022-10-04T06:36:11.725Z,7.43
2022-10-04T06:37:33.340Z,7.53
2022-10-04T06:38:34.623Z,7.67
2022-10-04T06:39:39.060Z,7.47
2022-10-04T06:40:49.597Z,7.93
2022-10-04T06:42:06.452Z,8.40
2022-10-04T06:43:40.342Z,8.37
2022-10-04T06:44:47.077Z,8.57
2022-10-04T06:45:58.614Z,8.23
2022-10-04T06:47:08.631Z,8.97
2022-10-04T06:48:12.961Z,8.70
2022-10-04T06:49:17.426Z,8.27
2022-10-04T06:50:25.034Z,8.37
2022-10-04T06:51:37.559Z,8.20
2022-10-04T06:53:16.482Z,8.33
2022-10-04T06:54:36.328Z,7.90
2022-10-04T06:56:05.611Z,8.23
2022-10-04T06:57:13.248Z,8.00
2022-10-04T06:58:26.573Z,7.87
2022-10-04T06:59:31.554Z,8.53
2022-10-04T07:00:35.271Z,8.47
2022-10-04T07:01:38.403Z,9.23
2022-10-04T07:02:45.859Z,8.87
2022-10-04T07:03:57.253Z,8.77
2022-10-04T07:05:08.447Z,8.73
2022-10-04T07:06:11.697Z,8.23
2022-10-04T07:07:27.153Z,8.10
2022-10-04T07:08:36.872Z,8.00
2022-10-04T07:09:40.836Z,7.93
2022-10-04T07:10:48.501Z,8.30
2022-10-04T07:11:53.123Z,8.13
2022-10-04T07:13:03.841Z,8.50
2022-10-04T07:14:10.168Z,7.97
2022-10-04T07:15:37.910Z,7.87
2022-10-04T07:16:55.895Z,7.70
2022-10-04T07:17:58.869Z,7.90
2022-10-04T07:19:03.241Z,8.23
2022-10-04T07:20:05.769Z,8.20
2022-10-04T07:21:12.629Z,7.73
2022-10-04T07:22:21.368Z,8.03
2022-10-04T07:23:28.842Z,7.13
2022-10-04T07:24:39.397Z,7.40
2022-10-04T07:25:46.042Z,7.50
2022-10-04T07:26:51.857Z,7.40
2022-10-04T07:28:23.257Z,7.30
2022-10-04T07:29:41.209Z,7.47
2022-10-04T07:30:51.703Z,7.20
2022-10-04T07:32:03.107Z,7.73
2022-10-04T07:33:06.737Z,7.73
2022-10-04T07:34:27.433Z,7.70
2022-10-04T07:35:48.988Z,8.00
2022-10-04T07:36:50.254Z,7.87
2022-10-04T07:37:56.648Z,7.60
2022-10-04T07:39:05.225Z,7.43
2022-10-04T07:40:09.661Z,8.33
2022-10-04T07:41:13.240Z,8.27
2022-10-04T07:42:20.353Z,8.77
2022-10-04T07:43:30.028Z,8.50
2022-10-04T07:44:39.602Z,9.00
2022-10-04T07:45:41.753Z,8.63
2022-10-04T07:46:43.178Z,8.97
2022-10-04T07:47:44.927Z,8.37
2022-10-04T07:48:49.077Z,8.97
2022-10-04T07:49:50.530Z,8.20
2022-10-04T07:50:54.582Z,8.23
2022-10-04T07:52:03.612Z,8.60
2022-10-04T07:53:10.981Z,8.50
2022-10-04T07:54:15.267Z,8.10
2022-10-04T07:55:25.606Z,8.53
2022-10-04T07:56:30.513Z,7.73
2022-10-04T07:57:47.253Z,8.00
2022-10-04T07:58:51.437Z,7.63
2022-10-04T08:00:14.156Z,8.13
2022-10-04T08:01:38.940Z,7.70
2022-10-04T08:02:46.493Z,7.93
2022-10-04T08:04:00.228Z,7.97
2022-10-04T08:05:08.457Z,7.93
2022-10-04T08:06:16.491Z,7.93
2022-10-04T08:07:21.621Z,7.40
2022-10-04T08:08:22.907Z,7.80
2022-10-04T08:09:33.144Z,7.13
2022-10-04T08:10:42.321Z,7.30
2022-10-04T08:11:52.661Z,6.40
2022-10-04T08:13:03.047Z,6.63
2022-10-04T08:14:17.421Z,7.10
2022-10-04T08:15:29.676Z,6.40
2022-10-04T08:16:41.220Z,6.70
2022-10-04T08:18:01.129Z,6.33
2022-10-04T08:19:21.232Z,6.77
2022-10-04T08:20:34.287Z,6.47
2022-10-04T08:21:45.447Z,5.87
2022-10-04T08:22:56.849Z,6.27
2022-10-04T08:24:01.140Z,5.90
2022-10-04T08:25:02.483Z,6.00
2022-10-04T08:26:12.631Z,6.17
2022-10-04T08:27:32.813Z,5.90
2022-10-04T08:29:11.786Z,5.90
2022-10-04T08:30:15.655Z,5.73
2022-10-04T08:31:39.231Z,5.93
2022-10-04T08:33:01.907Z,5.83
2022-10-04T08:34:36.319Z,5.40
2022-10-04T08:35:47.271Z,5.77
2022-10-04T08:37:09.589Z,5.67
2022-10-04T08:38:42.281Z,5.67
2022-10-04T08:39:57.911Z,5.70
2022-10-04T08:41:02.121Z,6.43
2022-10-04T08:42:20.553Z,5.83
2022-10-04T08:43:25.592Z,5.57
2022-10-04T08:44:38.751Z,7.17
2022-10-04T08:45:58.504Z,11.00
2022-10-04T08:47:03.147Z,9.37
2022-10-04T08:48:22.568Z,7.57
2022-10-04T08:49:46.535Z,6.67
2022-10-04T08:50:59.907Z,5.33
2022-10-04T08:52:07.916Z,7.30
2022-10-04T08:53:35.235Z,8.07
2022-10-04T08:54:36.589Z,9.40
2022-10-04T08:55:49.820Z,8.13
2022-10-04T08:56:51.109Z,8.03
2022-10-04T08:58:11.323Z,6.43
2022-10-04T08:59:12.603Z,5.03
2022-10-04T09:00:15.152Z,4.93
2022-10-04T09:01:31.338Z,5.70
2022-10-04T09:02:32.724Z,6.43
2022-10-04T09:04:06.572Z,5.37
2022-10-04T09:05:10.616Z,4.80
2022-10-04T09:06:36.339Z,5.90
2022-10-04T09:07:43.519Z,5.20
2022-10-04T09:08:57.009Z,5.67
2022-10-04T09:10:04.336Z,4.80
2022-10-04T09:11:08.626Z,4.27
2022-10-04T09:12:13.098Z,4.23
2022-10-04T09:13:33.437Z,4.13
2022-10-04T09:14:54.188Z,4.10
2022-10-04T09:15:59.934Z,5.43
2022-10-04T09:17:33.548Z,3.67
2022-10-04T09:18:48.396Z,4.73
2022-10-04T09:20:19.603Z,3.80
2022-10-04T09:21:32.836Z,3.70
2022-10-04T09:22:57.058Z,3.67
2022-10-04T09:24:24.748Z,3.17
2022-10-04T09:25:28.738Z,3.23
2022-10-04T09:26:44.065Z,3.30
2022-10-04T09:27:55.584Z,3.07
2022-10-04T09:29:04.573Z,3.20
2022-10-04T09:30:33.037Z,3.27
2022-10-04T09:31:43.433Z,4.03
2022-10-04T09:33:03.170Z,3.37
2022-10-04T09:34:23.907Z,2.93
2022-10-04T09:35:33.981Z,3.00
2022-10-04T09:36:54.359Z,3.47
2022-10-04T09:38:04.623Z,3.27
2022-10-04T09:39:29.565Z,3.10
2022-10-04T09:40:52.278Z,3.57
2022-10-04T09:41:56.714Z,4.00
2022-10-04T09:43:17.585Z,3.53
2022-10-04T09:44:45.995Z,3.47
2022-10-04T09:45:50.167Z,3.53
2022-10-04T09:47:03.680Z,3.23
2022-10-04T09:48:05.023Z,3.67
2022-10-04T09:49:37.779Z,3.90
2022-10-04T09:50:57.850Z,3.17
2022-10-04T09:52:08.854Z,3.40
2022-10-04T09:53:20.231Z,3.10
2022-10-04T09:54:45.696Z,2.80
2022-10-04T09:55:47.034Z,3.10
2022-10-04T09:56:54.269Z,2.97
2022-10-04T09:58:22.936Z,3.50
2022-10-04T09:59:36.369Z,3.27
2022-10-04T10:00:44.298Z,3.27
2022-10-04T10:01:54.722Z,3.20
2022-10-04T10:03:12.138Z,3.47
2022-10-04T10:04:28.441Z,3.43
2022-10-04T10:05:48.691Z,3.30
2022-10-04T10:06:50.039Z,3.20
2022-10-04T10:08:10.089Z,3.00
2022-10-04T10:09:18.460Z,3.47
2022-10-04T10:10:50.655Z,3.53
2022-10-04T10:12:36.659Z,3.60
2022-10-04T10:14:07.037Z,3.30
2022-10-04T10:15:15.769Z,3.30
2022-10-04T10:16:29.969Z,3.00
2022-10-04T10:17:40.669Z,4.30
2022-10-04T10:19:01.016Z,3.50
2022-10-04T10:20:22.979Z,3.60
2022-10-04T10:21:43.151Z,3.30
2022-10-04T10:22:44.633Z,3.47
2022-10-04T10:24:21.536Z,3.30
2022-10-04T10:25:40.232Z,3.40
2022-10-04T10:27:02.041Z,4.63
2022-10-04T10:28:15.137Z,4.30
2022-10-04T10:29:24.546Z,5.07
2022-10-04T10:30:31.653Z,3.80
2022-10-04T10:31:51.563Z,3.70
2022-10-04T10:32:52.903Z,3.63
2022-10-04T10:34:09.347Z,3.50
2022-10-04T10:35:19.512Z,3.80
2022-10-04T10:36:28.404Z,3.50
2022-10-04T10:37:50.413Z,3.70
2022-10-04T10:39:09.257Z,3.10
2022-10-04T10:40:43.566Z,2.83
2022-10-04T10:41:53.860Z,3.50
2022-10-04T10:43:01.122Z,3.40
2022-10-04T10:44:14.856Z,3.33
2022-10-04T10:45:21.139Z,3.30
2022-10-04T10:46:34.878Z,3.33
2022-10-04T10:47:39.666Z,2.90
2022-10-04T10:49:04.308Z,3.37
2022-10-04T10:50:25.140Z,3.57
2022-10-04T10:51:41.299Z,3.37
2022-10-04T10:52:59.586Z,4.13
2022-10-04T10:54:27.116Z,3.47
2022-10-04T10:55:30.711Z,3.83
2022-10-04T10:56:47.631Z,3.50
2022-10-04T10:58:04.311Z,3.07
2022-10-04T10:59:08.664Z,3.13
2022-10-04T11:00:18.771Z,3.13
2022-10-04T11:01:35.634Z,4.30
2022-10-04T11:02:50.517Z,5.23
2022-10-04T11:03:52.332Z,3.43
2022-10-04T11:04:56.866Z,4.20
2022-10-04T11:06:25.286Z,3.30
2022-10-04T11:07:42.415Z,4.27
2022-10-04T11:08:55.389Z,3.27
2022-10-04T11:10:15.576Z,3.20
2022-10-04T11:11:26.003Z,3.20
2022-10-04T11:12:27.727Z,3.53
2022-10-04T11:13:38.136Z,3.20
2022-10-04T11:14:53.912Z,3.23
2022-10-04T11:16:07.670Z,3.57
2022-10-04T11:17:20.906Z,3.30
2022-10-04T11:18:37.520Z,3.00
2022-10-04T11:19:38.845Z,3.40
2022-10-04T11:20:43.375Z,3.37
2022-10-04T11:21:54.228Z,3.20
2022-10-04T11:23:20.290Z,3.30
2022-10-04T11:24:30.820Z,2.90
2022-10-04T11:25:43.892Z,2.87
2022-10-04T11:26:56.959Z,3.00
2022-10-04T11:28:12.406Z,2.67
2022-10-04T11:29:20.636Z,3.67
2022-10-04T11:30:51.350Z,3.77
2022-10-04T11:31:55.815Z,3.80
2022-10-04T11:33:06.439Z,3.77
2022-10-04T11:34:35.583Z,7.50
2022-10-04T11:35:37.005Z,4.30
2022-10-04T11:36:47.916Z,4.00
2022-10-04T11:38:02.258Z,3.60
2022-10-04T11:39:21.433Z,3.67
2022-10-04T11:40:23.115Z,4.70
2022-10-04T11:41:30.090Z,8.63
2022-10-04T11:42:37.549Z,10.03
2022-10-04T11:43:51.982Z,6.50
2022-10-04T11:45:13.414Z,4.53
2022-10-04T11:46:33.606Z,5.50
2022-10-04T11:47:41.195Z,4.00
2022-10-04T11:48:55.437Z,5.30
2022-10-04T11:50:08.811Z,4.20
2022-10-04T11:51:29.018Z,4.10
2022-10-04T11:52:42.504Z,3.33
2022-10-04T11:53:43.923Z,5.63
2022-10-04T11:55:01.460Z,5.90
2022-10-04T11:56:06.318Z,4.17
2022-10-04T11:57:15.011Z,4.00
2022-10-04T11:58:25.580Z,3.40
2022-10-04T11:59:39.971Z,3.13
2022-10-04T12:00:54.733Z,3.50
2022-10-04T12:02:00.860Z,3.80
2022-10-04T12:03:20.443Z,3.70
2022-10-04T12:04:31.935Z,4.00
2022-10-04T12:05:51.337Z,4.03
2022-10-04T12:06:53.285Z,4.63
2022-10-04T12:08:01.825Z,6.13
2022-10-04T12:09:23.880Z,4.27
2022-10-04T12:10:48.113Z,3.73
2022-10-04T12:12:07.923Z,3.20
2022-10-04T12:13:12.426Z,3.00
2022-10-04T12:14:24.618Z,2.97
2022-10-04T12:15:38.485Z,3.10
2022-10-04T12:17:08.530Z,3.53
2022-10-04T12:18:25.924Z,3.80
2022-10-04T12:19:45.139Z,2.97
2022-10-04T12:20:59.312Z,3.50
2022-10-04T12:22:06.504Z,4.27
2022-10-04T12:23:11.433Z,3.87
2022-10-04T12:24:28.236Z,4.07
2022-10-04T12:25:32.750Z,4.07
2022-10-04T12:26:54.861Z,3.57
2022-10-04T12:27:56.364Z,3.53
2022-10-04T12:29:20.293Z,3.40
2022-10-04T12:30:42.285Z,3.50
2022-10-04T12:31:50.045Z,3.00
2022-10-04T12:32:58.009Z,2.97
2022-10-04T12:34:14.837Z,3.03
2022-10-04T12:35:43.393Z,2.90
2022-10-04T12:36:53.890Z,3.10
2022-10-04T12:38:14.346Z,2.67
2022-10-04T12:39:24.547Z,2.90
2022-10-04T12:40:33.219Z,3.07
2022-10-04T12:41:55.828Z,3.50
2022-10-04T12:43:15.732Z,4.50
2022-10-04T12:44:29.389Z,4.03
2022-10-04T12:45:52.914Z,4.57
2022-10-04T12:46:57.984Z,3.33
2022-10-04T12:48:05.722Z,3.40
2022-10-04T12:49:26.002Z,3.20
2022-10-04T12:50:31.785Z,3.13
2022-10-04T12:51:41.915Z,3.03
2022-10-04T12:53:03.744Z,2.47
2022-10-04T12:54:23.946Z,2.60
2022-10-04T12:55:44.249Z,4.07
2022-10-04T12:57:02.375Z,3.53
2022-10-04T12:58:09.816Z,3.70
2022-10-04T12:59:22.125Z,3.10
2022-10-04T13:00:24.945Z,3.63
2022-10-04T13:01:30.027Z,3.93
2022-10-04T13:02:43.331Z,3.30
2022-10-04T13:03:47.746Z,3.43
2022-10-04T13:04:52.645Z,3.47
2022-10-04T13:06:19.874Z,3.90
2022-10-04T13:07:36.984Z,3.63
2022-10-04T13:08:57.667Z,3.70
2022-10-04T13:10:29.652Z,2.80
2022-10-04T13:11:30.971Z,2.83
2022-10-04T13:12:38.924Z,2.33
2022-10-04T13:13:59.613Z,2.50
2022-10-04T13:15:14.118Z,2.80
2022-10-04T13:17:54.849Z,3.20
2022-10-04T13:19:11.712Z,2.70
2022-10-04T13:20:16.418Z,3.00
2022-10-04T13:21:23.040Z,3.00
2022-10-04T13:22:44.374Z,2.63
2022-10-04T13:24:07.414Z,2.83
2022-10-04T13:25:14.880Z,2.80
2022-10-04T13:26:25.264Z,2.53
2022-10-04T13:27:26.543Z,2.27
2022-10-04T13:28:34.342Z,2.40
2022-10-04T13:29:53.775Z,2.70
2022-10-04T13:31:01.170Z,2.70
2022-10-04T13:32:06.098Z,2.40
2022-10-04T13:33:26.991Z,2.37
2022-10-04T13:34:52.777Z,2.37
2022-10-04T13:36:06.251Z,2.50
2022-10-04T13:37:07.661Z,2.40
2022-10-04T13:38:31.843Z,2.30
2022-10-04T13:39:44.780Z,2.50
2022-10-04T13:41:09.037Z,2.50
2022-10-04T13:42:29.349Z,2.40
2022-10-04T13:43:36.727Z,2.77
2022-10-04T13:44:54.900Z,2.70
2022-10-04T13:46:14.674Z,2.70
2022-10-04T13:47:25.667Z,2.50
2022-10-04T13:48:26.972Z,2.20
2022-10-04T13:49:31.480Z,2.00
2022-10-04T13:50:40.975Z,2.50
2022-10-04T13:51:42.761Z,2.67
2022-10-04T13:53:19.000Z,2.40
2022-10-04T13:54:52.808Z,2.20
2022-10-04T13:56:27.940Z,2.40
2022-10-04T13:57:47.787Z,2.87
2022-10-04T13:59:32.230Z,2.30
2022-10-04T14:00:47.910Z,2.20
2022-10-04T14:02:10.276Z,2.13
2022-10-04T14:03:29.657Z,2.30
2022-10-04T14:04:53.320Z,2.40
2022-10-04T14:06:03.775Z,2.03
2022-10-04T14:07:17.308Z,2.30
2022-10-04T14:08:50.741Z,2.70
2022-10-04T14:10:10.275Z,2.30
2022-10-04T14:11:26.843Z,2.30
2022-10-04T14:12:37.090Z,2.47
2022-10-04T14:13:50.697Z,2.10
2022-10-04T14:15:09.560Z,1.97
2022-10-04T14:16:26.121Z,2.20
2022-10-04T14:17:54.222Z,2.30
2022-10-04T14:18:58.397Z,2.40
2022-10-04T14:20:18.923Z,2.20
2022-10-04T14:21:23.117Z,2.33
2022-10-04T14:22:38.409Z,3.10
2022-10-04T14:23:39.750Z,2.30
2022-10-04T14:24:53.685Z,2.30
2022-10-04T14:26:01.124Z,2.03
2022-10-04T14:27:02.409Z,2.30
2022-10-04T14:28:16.911Z,2.50
2022-10-04T14:29:28.817Z,2.50
2022-10-04T14:30:38.961Z,1.93
2022-10-04T14:32:03.019Z,2.37
2022-10-04T14:33:21.285Z,2.30
2022-10-04T14:34:31.409Z,2.30
2022-10-04T14:35:43.496Z,2.17
2022-10-04T14:37:03.686Z,2.17
2022-10-04T14:38:26.724Z,2.17
2022-10-04T14:39:31.091Z,1.90
2022-10-04T14:40:59.299Z,2.03
2022-10-04T14:42:19.440Z,2.10
2022-10-04T14:43:23.838Z,2.87
2022-10-04T14:44:28.161Z,3.07
2022-10-04T14:45:37.624Z,2.80
2022-10-04T14:46:57.836Z,2.30
2022-10-04T14:47:59.192Z,2.20
2022-10-04T14:49:13.293Z,2.53
2022-10-04T14:50:23.803Z,2.77
2022-10-04T14:51:26.582Z,2.30
2022-10-04T14:52:46.531Z,2.23
2022-10-04T14:53:54.037Z,2.30
2022-10-04T14:54:55.406Z,2.77
2022-10-04T14:56:12.064Z,2.60
2022-10-04T14:57:32.589Z,2.23
2022-10-04T14:58:40.917Z,2.00
2022-10-04T14:59:45.282Z,2.27
2022-10-04T15:00:58.891Z,2.47
2022-10-04T15:02:00.296Z,2.40
2022-10-04T15:03:17.750Z,2.33
2022-10-04T15:04:19.595Z,2.30
2022-10-04T15:05:31.627Z,2.20
2022-10-04T15:06:35.799Z,2.23
2022-10-04T15:07:46.781Z,2.80
2022-10-04T15:08:57.489Z,2.37
2022-10-04T15:10:10.831Z,2.30
2022-10-04T15:11:19.759Z,2.20
2022-10-04T15:12:51.993Z,2.10
2022-10-04T15:13:55.800Z,2.00
2022-10-04T15:15:13.369Z,2.10
2022-10-04T15:16:33.774Z,2.20
2022-10-04T15:17:39.124Z,2.30
2022-10-04T15:18:52.545Z,1.97
2022-10-04T15:20:02.227Z,2.03
2022-10-04T15:21:23.769Z,2.20
2022-10-04T15:22:27.383Z,1.83
2022-10-04T15:23:28.977Z,2.50
2022-10-04T15:24:31.619Z,2.33
2022-10-04T15:25:43.475Z,2.27
2022-10-04T15:26:48.287Z,2.23
2022-10-04T15:27:51.576Z,2.50
2022-10-04T15:29:06.380Z,2.67
2022-10-04T15:30:19.633Z,3.10
2022-10-04T15:31:36.444Z,3.67
2022-10-04T15:32:53.241Z,4.37
2022-10-04T15:33:54.594Z,3.93
2022-10-04T15:35:08.029Z,3.70